Sioux Arrow — WAG6168 — position and weather

sailwx.info

Track history (hours):
 
Tides and Currents Weather Stations Pressure Air Temp Water Temp Dewpoint Dewpoint Depression Visibility Wind Speed Wind Dir Waves Ship Positions

Sioux Arrow

Owner: HARMON, JACK L, PORT ANGELES, WA. More information available from US FCC via Universal Licensing System and Coast Guard Vessel Documentation Center.

Last reported at 2017-Dec-11 06:05 UTC. Time now 2017-Dec-12 22:00 UTC.
Position N 48°31' W 122°36'.

Type: Port tender. MMSI: 366973370.

Date/timePositionNaut miles runAvg speedWind from/ knotsBaromVisibWave heightAir tempDewpointWater temp
2017-Dec-11 06:05N 48°31' W 122°36'0 0.0
2017-Dec-11 06:00N 48°31' W 122°36'0 0.0
2017-Dec-11 05:30N 48°31' W 122°36'0 0.0
2017-Dec-11 05:00N 48°31' W 122°36'0 0.0
2017-Dec-11 04:30N 48°31' W 122°36'0 0.0
2017-Dec-11 04:00N 48°31' W 122°36'0 0.0
2017-Dec-11 03:30N 48°31' W 122°36'0 0.0
2017-Dec-11 03:00N 48°31' W 122°36'1 1.1
2017-Dec-11 02:30N 48°31' W 122°36'1 1.1
2017-Dec-11 02:00N 48°31' W 122°36'0 0.0
2017-Dec-11 01:30N 48°31' W 122°36'0 0.0
2017-Dec-11 01:00N 48°31' W 122°36'1 2.4
2017-Dec-11 00:30N 48°31' W 122°35'0 0.9
2017-Dec-11 00:00N 48°31' W 122°34'2 3.3
2017-Dec-10 23:30N 48°31' W 122°36'0 0.0
2017-Dec-10 23:00N 48°31' W 122°36'0 0.0
2017-Dec-10 22:30N 48°31' W 122°36'0 0.0
2017-Dec-10 22:00N 48°31' W 122°36'0 0.0
2017-Dec-10 21:30N 48°31' W 122°36'0 0.0
2017-Dec-10 21:00N 48°31' W 122°36'0 0.7
2017-Dec-10 20:30N 48°31' W 122°36'0 0.7
2017-Dec-10 20:00N 48°31' W 122°36'0 0.0
2017-Dec-10 19:30N 48°31' W 122°36'0 0.0
2017-Dec-10 19:00N 48°31' W 122°36'0 0.0
2017-Dec-10 18:30N 48°31' W 122°36'0 0.0
2017-Dec-10 18:00N 48°31' W 122°36'0 0.0
2017-Dec-10 17:30N 48°31' W 122°36'0 0.1
2017-Dec-10 17:00N 48°31' W 122°37'0 0.0
2017-Dec-10 16:30N 48°31' W 122°37'2 3.5
2017-Dec-10 16:00N 48°31' W 122°34'2 3.4
2017-Dec-10 15:30N 48°31' W 122°37'0 0.0
2017-Dec-10 00:19N 48°31' W 122°36'2 5.2
2017-Dec-10 00:00N 48°32' W 122°34'4 7.7
2017-Dec-09 23:29N 48°35' W 122°33'3 7.1
2017-Dec-09 23:00N 48°32' W 122°34'2 4.3
2017-Dec-09 22:30N 48°31' W 122°36'0 0.1
2017-Dec-09 22:00N 48°31' W 122°36'0 0.0
2017-Dec-09 21:30N 48°31' W 122°36'0 0.0
2017-Dec-09 21:00N 48°31' W 122°36'0 1.0
2017-Dec-09 20:30N 48°31' W 122°36'0 1.0
2017-Dec-09 20:00N 48°31' W 122°36'510.3
2017-Dec-09 19:30N 48°35' W 122°33'4 7.9
2017-Dec-09 19:00N 48°32' W 122°34'2 3.5
2017-Dec-09 18:30N 48°31' W 122°36'0 0.0
2017-Dec-09 18:00N 48°31' W 122°36'0 0.0
2017-Dec-09 17:30N 48°31' W 122°36'0 0.0
2017-Dec-09 17:00N 48°31' W 122°36'0 0.0
2017-Dec-09 16:30N 48°31' W 122°36'0 0.0
2017-Dec-09 16:00N 48°31' W 122°36'0 0.0
2017-Dec-09 15:30N 48°31' W 122°36'0 0.0
2017-Dec-09 15:00N 48°31' W 122°36'0 0.0
2017-Dec-09 14:30N 48°31' W 122°36'0 0.0
2017-Dec-09 14:00N 48°31' W 122°36'0 0.0
2017-Dec-09 13:30N 48°31' W 122°36'0 0.0
2017-Dec-09 13:00N 48°31' W 122°36'0 0.0
2017-Dec-09 12:30N 48°31' W 122°36'0 0.0
2017-Dec-09 12:00N 48°31' W 122°36'1 2.1
2017-Dec-09 11:30N 48°31' W 122°35'1 2.1
2017-Dec-09 11:00N 48°31' W 122°36'0 0.0
2017-Dec-09 01:58N 48°31' W 122°36'0 0.0
2017-Dec-09 01:30N 48°31' W 122°36'0 0.0
2017-Dec-09 01:00N 48°31' W 122°36'0 0.0
2017-Dec-09 00:30N 48°31' W 122°36'0 0.0
2017-Dec-09 00:00N 48°31' W 122°36'0 0.0
2017-Dec-08 23:30N 48°31' W 122°36'0 0.0
2017-Dec-08 23:00N 48°31' W 122°36'0 0.0
2017-Dec-08 22:30N 48°31' W 122°36'0 0.0
2017-Dec-08 22:00N 48°31' W 122°36'0 0.0
2017-Dec-08 21:30N 48°31' W 122°36'0 0.0
2017-Dec-08 21:00N 48°31' W 122°36'0 0.2
2017-Dec-08 20:30N 48°31' W 122°36'5 9.9
2017-Dec-08 20:00N 48°35' W 122°34'510.1
2017-Dec-08 19:30N 48°31' W 122°36'0 0.0
2017-Dec-08 19:00N 48°31' W 122°36'0 0.1
2017-Dec-08 18:30N 48°31' W 122°37'0 0.0
2017-Dec-08 18:00N 48°31' W 122°37'1 2.3
2017-Dec-08 17:30N 48°31' W 122°35'1 2.3
2017-Dec-08 17:00N 48°31' W 122°36'0 0.0
2017-Dec-08 16:30N 48°31' W 122°36'0 0.0
2017-Dec-08 16:00N 48°31' W 122°36'0 0.0
2017-Dec-08 15:30N 48°31' W 122°36'0 0.0
2017-Dec-08 15:00N 48°31' W 122°36'0 0.2
2017-Dec-08 14:30N 48°31' W 122°36'1 1.9
2017-Dec-08 14:00N 48°31' W 122°35'1 2.1
2017-Dec-08 13:30N 48°31' W 122°36'0 0.0
2017-Dec-08 13:00N 48°31' W 122°36'0 0.0
2017-Dec-08 12:30N 48°31' W 122°36'3 5.4
2017-Dec-08 12:01N 48°33' W 122°34'4 8.9
2017-Dec-08 11:30N 48°37' W 122°34'0 0.3
2017-Dec-08 11:01N 48°37' W 122°34'0 0.4
2017-Dec-08 10:29N 48°37' W 122°34'2 4.6
2017-Dec-08 10:00N 48°35' W 122°34'4 8.9
2017-Dec-08 09:30N 48°31' W 122°36'0 0.1
2017-Dec-08 09:00N 48°31' W 122°36'0 0.0
2017-Dec-08 08:31N 48°31' W 122°36'0 0.0
2017-Dec-08 08:00N 48°31' W 122°36'0 0.0
2017-Dec-08 07:30N 48°31' W 122°36'0 0.0
2017-Dec-08 07:00N 48°31' W 122°36'0 0.0
2017-Dec-08 06:30N 48°31' W 122°36'0 0.0
2017-Dec-08 06:00N 48°31' W 122°36'0 0.0
2017-Dec-08 05:31N 48°31' W 122°36'0 0.0
2017-Dec-08 05:00N 48°31' W 122°36'0 0.0
2017-Dec-08 04:31N 48°31' W 122°36'0 0.0
2017-Dec-08 04:00N 48°31' W 122°36'0 0.0
2017-Dec-08 03:30N 48°31' W 122°36'0 0.0
2017-Dec-08 03:00N 48°31' W 122°36'0 0.0
2017-Dec-08 02:30N 48°31' W 122°36'0 1.0
2017-Dec-08 02:00N 48°31' W 122°36'510.5
2017-Dec-08 01:30N 48°35' W 122°32'5 9.7
2017-Dec-08 01:00N 48°31' W 122°35'1 2.3
2017-Dec-08 00:30N 48°31' W 122°36'0 0.0
2017-Dec-08 00:00N 48°31' W 122°36'2 4.5
2017-Dec-07 23:30N 48°32' W 122°34'3 6.2
2017-Dec-07 23:00N 48°35' W 122°33'510.5
2017-Dec-07 22:31N 48°31' W 122°36'0 0.0
2017-Dec-07 22:01N 48°31' W 122°36'0 0.0
2017-Dec-07 21:30N 48°31' W 122°36'0 0.0
2017-Dec-07 21:00N 48°31' W 122°36'2 3.2
2017-Dec-07 20:31N 48°31' W 122°34'0 0.2
2017-Dec-07 20:01N 48°31' W 122°34'1 3.0
2017-Dec-07 19:31N 48°31' W 122°36'0 0.0
2017-Dec-07 19:01N 48°31' W 122°36'0 0.0
2017-Dec-07 18:31N 48°31' W 122°36'0 0.0
2017-Dec-07 18:01N 48°31' W 122°36'0 0.0
2017-Dec-07 17:30N 48°31' W 122°36'0 0.0
2017-Dec-07 17:01N 48°31' W 122°36'1 2.9
2017-Dec-07 16:31N 48°31' W 122°34'0 0.1
2017-Dec-07 16:01N 48°31' W 122°34'1 2.9
2017-Dec-07 15:30N 48°31' W 122°36'0 0.0
2017-Dec-07 06:06N 48°31' W 122°36'0 0.2
2017-Dec-07 06:00N 48°31' W 122°36'0 0.0
2017-Dec-07 05:30N 48°31' W 122°36'0 0.0
2017-Dec-07 05:00N 48°31' W 122°36'0 0.0
2017-Dec-07 04:30N 48°31' W 122°36'1 1.4
2017-Dec-07 04:00N 48°31' W 122°35'1 1.4
2017-Dec-07 03:30N 48°31' W 122°36'0 0.0
2017-Dec-07 03:00N 48°31' W 122°36'0 0.0
2017-Dec-07 02:30N 48°31' W 122°36'0 0.0
2017-Dec-07 02:00N 48°31' W 122°36'0 0.0
2017-Dec-07 01:30N 48°31' W 122°36'0 0.0
2017-Dec-07 01:00N 48°31' W 122°36'1 1.8
2017-Dec-07 00:30N 48°31' W 122°35'5 9.9
2017-Dec-07 00:00N 48°35' W 122°32'1 2.9
2017-Dec-06 23:30N 48°35' W 122°34'5 9.6
2017-Dec-06 23:00N 48°31' W 122°36'0 0.0
2017-Dec-06 22:30N 48°31' W 122°36'0 0.0
2017-Dec-06 22:00N 48°31' W 122°36'0 0.0
2017-Dec-06 21:30N 48°31' W 122°36'0 0.0
2017-Dec-06 21:00N 48°31' W 122°36'  
2017-Dec-04 03:54N 48°31' W 122°36'0 0.0
2017-Dec-04 03:30N 48°31' W 122°36'0 0.0
2017-Dec-04 03:00N 48°31' W 122°36'0 0.0
2017-Dec-04 02:30N 48°31' W 122°36'0 0.0
2017-Dec-04 02:00N 48°31' W 122°36'0 0.0
2017-Dec-04 01:30N 48°31' W 122°36'0 0.0
2017-Dec-04 01:00N 48°31' W 122°36'0 0.0
2017-Dec-04 00:30N 48°31' W 122°36'0 0.0
2017-Dec-04 00:00N 48°31' W 122°36'0 0.0
2017-Dec-03 23:30N 48°31' W 122°36'0 0.0
2017-Dec-03 23:00N 48°31' W 122°36'0 0.0
2017-Dec-03 22:30N 48°31' W 122°36'0 0.0
2017-Dec-03 22:00N 48°31' W 122°36'0 0.0
2017-Dec-03 21:30N 48°31' W 122°36'3 5.6
2017-Dec-03 21:00N 48°33' W 122°34'3 5.5
2017-Dec-03 20:30N 48°36' W 122°33'510.9
2017-Dec-03 20:00N 48°31' W 122°36'0 0.1
2017-Dec-03 19:30N 48°31' W 122°36'0 0.0
2017-Dec-03 19:00N 48°31' W 122°36'0 0.0
2017-Dec-03 18:30N 48°31' W 122°36'0 0.0
2017-Dec-03 18:00N 48°31' W 122°36'0 0.0
2017-Dec-03 17:30N 48°31' W 122°36'0 0.0
2017-Dec-03 17:00N 48°31' W 122°36'0 0.1
2017-Dec-03 16:30N 48°31' W 122°36'1 1.8
2017-Dec-03 16:00N 48°31' W 122°35'1 1.8
2017-Dec-03 15:29N 48°31' W 122°36'0 0.0
2017-Dec-03 11:19N 48°31' W 122°36'0 0.6
2017-Dec-03 11:00N 48°31' W 122°36'0 0.4
2017-Dec-03 10:30N 48°31' W 122°36'0 0.0
2017-Dec-03 10:00N 48°31' W 122°36'0 0.0
2017-Dec-03 09:30N 48°31' W 122°36'0 0.0
2017-Dec-03 09:00N 48°31' W 122°36'0 0.0
2017-Dec-03 08:30N 48°31' W 122°36'0 0.0
2017-Dec-03 08:00N 48°31' W 122°36'0 0.0
2017-Dec-03 07:30N 48°31' W 122°36'0 0.0
2017-Dec-03 07:00N 48°31' W 122°36'0 0.0
2017-Dec-03 06:30N 48°31' W 122°36'0 0.0
2017-Dec-03 06:00N 48°31' W 122°36'0 0.0
2017-Dec-03 05:30N 48°31' W 122°36'0 0.0
2017-Dec-03 05:00N 48°31' W 122°36'0 0.0
2017-Dec-03 04:30N 48°31' W 122°36'0 0.0
2017-Dec-03 04:00N 48°31' W 122°36'0 0.0
2017-Dec-03 03:30N 48°31' W 122°36'0 0.0
2017-Dec-03 03:00N 48°31' W 122°36'1 1.1
2017-Dec-03 02:30N 48°31' W 122°36'1 1.1
2017-Dec-03 02:00N 48°31' W 122°36'0 0.0
2017-Dec-03 01:30N 48°31' W 122°36'0 0.0
2017-Dec-03 01:00N 48°31' W 122°36'0 0.0
2017-Dec-03 00:30N 48°31' W 122°36'0 0.0
2017-Dec-03 00:00N 48°31' W 122°36'1 2.0
2017-Dec-02 23:30N 48°31' W 122°35'1 2.0
2017-Dec-02 23:00N 48°31' W 122°36'0 0.0
2017-Dec-02 22:30N 48°31' W 122°36'0 0.0
2017-Dec-02 22:00N 48°31' W 122°36'0 0.0
2017-Dec-02 21:30N 48°31' W 122°36'0 0.0
2017-Dec-02 21:00N 48°31' W 122°36'1 1.7
2017-Dec-02 20:30N 48°31' W 122°35'0 0.5
2017-Dec-02 20:00N 48°31' W 122°35'0 0.1
2017-Dec-02 19:30N 48°31' W 122°35'0 0.1
2017-Dec-02 19:00N 48°31' W 122°35'0 0.3
2017-Dec-02 18:30N 48°31' W 122°35'1 2.1
2017-Dec-02 18:00N 48°31' W 122°36'0 0.0
2017-Dec-02 17:30N 48°31' W 122°36'0 0.0
2017-Dec-02 17:00N 48°31' W 122°36'0 0.0
2017-Dec-02 16:30N 48°31' W 122°36'0 0.1
2017-Dec-02 16:00N 48°31' W 122°37'0 0.1
2017-Dec-02 15:30N 48°31' W 122°36'  
Track history (hours):
 
Tides and Currents Weather Stations Pressure Air Temp Water Temp Dewpoint Dewpoint Depression Visibility Wind Speed Wind Dir Waves Ship Positions

Sioux Arrow

Owner: HARMON, JACK L, PORT ANGELES, WA. More information available from US FCC via Universal Licensing System and Coast Guard Vessel Documentation Center.

Last reported at 2017-Dec-11 06:05 UTC. Time now 2017-Dec-12 22:00 UTC.
Position N 48°31' W 122°36'.

Type: Port tender. MMSI: 366973370.

Date/timePositionNaut miles runAvg speedWind from/ knotsBaromVisibWave heightAir tempDewpointWater temp
2017-Dec-11 06:05N 48°31' W 122°36'0 0.0
2017-Dec-11 06:00N 48°31' W 122°36'0 0.0
2017-Dec-11 05:30N 48°31' W 122°36'0 0.0
2017-Dec-11 05:00N 48°31' W 122°36'0 0.0
2017-Dec-11 04:30N 48°31' W 122°36'0 0.0
2017-Dec-11 04:00N 48°31' W 122°36'0 0.0
2017-Dec-11 03:30N 48°31' W 122°36'0 0.0
2017-Dec-11 03:00N 48°31' W 122°36'1 1.1
2017-Dec-11 02:30N 48°31' W 122°36'1 1.1
2017-Dec-11 02:00N 48°31' W 122°36'0 0.0
2017-Dec-11 01:30N 48°31' W 122°36'0 0.0
2017-Dec-11 01:00N 48°31' W 122°36'1 2.4
2017-Dec-11 00:30N 48°31' W 122°35'0 0.9
2017-Dec-11 00:00N 48°31' W 122°34'2 3.3
2017-Dec-10 23:30N 48°31' W 122°36'0 0.0
2017-Dec-10 23:00N 48°31' W 122°36'0 0.0
2017-Dec-10 22:30N 48°31' W 122°36'0 0.0
2017-Dec-10 22:00N 48°31' W 122°36'0 0.0
2017-Dec-10 21:30N 48°31' W 122°36'0 0.0
2017-Dec-10 21:00N 48°31' W 122°36'0 0.7
2017-Dec-10 20:30N 48°31' W 122°36'0 0.7
2017-Dec-10 20:00N 48°31' W 122°36'0 0.0
2017-Dec-10 19:30N 48°31' W 122°36'0 0.0
2017-Dec-10 19:00N 48°31' W 122°36'0 0.0
2017-Dec-10 18:30N 48°31' W 122°36'0 0.0
2017-Dec-10 18:00N 48°31' W 122°36'0 0.0
2017-Dec-10 17:30N 48°31' W 122°36'0 0.1
2017-Dec-10 17:00N 48°31' W 122°37'0 0.0
2017-Dec-10 16:30N 48°31' W 122°37'2 3.5
2017-Dec-10 16:00N 48°31' W 122°34'2 3.4
2017-Dec-10 15:30N 48°31' W 122°37'0 0.0
2017-Dec-10 00:19N 48°31' W 122°36'2 5.2
2017-Dec-10 00:00N 48°32' W 122°34'4 7.7
2017-Dec-09 23:29N 48°35' W 122°33'3 7.1
2017-Dec-09 23:00N 48°32' W 122°34'2 4.3
2017-Dec-09 22:30N 48°31' W 122°36'0 0.1
2017-Dec-09 22:00N 48°31' W 122°36'0 0.0
2017-Dec-09 21:30N 48°31' W 122°36'0 0.0
2017-Dec-09 21:00N 48°31' W 122°36'0 1.0
2017-Dec-09 20:30N 48°31' W 122°36'0 1.0
2017-Dec-09 20:00N 48°31' W 122°36'510.3
2017-Dec-09 19:30N 48°35' W 122°33'4 7.9
2017-Dec-09 19:00N 48°32' W 122°34'2 3.5
2017-Dec-09 18:30N 48°31' W 122°36'0 0.0
2017-Dec-09 18:00N 48°31' W 122°36'0 0.0
2017-Dec-09 17:30N 48°31' W 122°36'0 0.0
2017-Dec-09 17:00N 48°31' W 122°36'0 0.0
2017-Dec-09 16:30N 48°31' W 122°36'0 0.0
2017-Dec-09 16:00N 48°31' W 122°36'0 0.0
2017-Dec-09 15:30N 48°31' W 122°36'0 0.0
2017-Dec-09 15:00N 48°31' W 122°36'0 0.0
2017-Dec-09 14:30N 48°31' W 122°36'0 0.0
2017-Dec-09 14:00N 48°31' W 122°36'0 0.0
2017-Dec-09 13:30N 48°31' W 122°36'0 0.0
2017-Dec-09 13:00N 48°31' W 122°36'0 0.0
2017-Dec-09 12:30N 48°31' W 122°36'0 0.0
2017-Dec-09 12:00N 48°31' W 122°36'1 2.1
2017-Dec-09 11:30N 48°31' W 122°35'1 2.1
2017-Dec-09 11:00N 48°31' W 122°36'0 0.0
2017-Dec-09 01:58N 48°31' W 122°36'0 0.0
2017-Dec-09 01:30N 48°31' W 122°36'0 0.0
2017-Dec-09 01:00N 48°31' W 122°36'0 0.0
2017-Dec-09 00:30N 48°31' W 122°36'0 0.0
2017-Dec-09 00:00N 48°31' W 122°36'0 0.0
2017-Dec-08 23:30N 48°31' W 122°36'0 0.0
2017-Dec-08 23:00N 48°31' W 122°36'0 0.0
2017-Dec-08 22:30N 48°31' W 122°36'0 0.0
2017-Dec-08 22:00N 48°31' W 122°36'0 0.0
2017-Dec-08 21:30N 48°31' W 122°36'0 0.0
2017-Dec-08 21:00N 48°31' W 122°36'0 0.2
2017-Dec-08 20:30N 48°31' W 122°36'5 9.9
2017-Dec-08 20:00N 48°35' W 122°34'510.1
2017-Dec-08 19:30N 48°31' W 122°36'0 0.0
2017-Dec-08 19:00N 48°31' W 122°36'0 0.1
2017-Dec-08 18:30N 48°31' W 122°37'0 0.0
2017-Dec-08 18:00N 48°31' W 122°37'1 2.3
2017-Dec-08 17:30N 48°31' W 122°35'1 2.3
2017-Dec-08 17:00N 48°31' W 122°36'0 0.0
2017-Dec-08 16:30N 48°31' W 122°36'0 0.0
2017-Dec-08 16:00N 48°31' W 122°36'0 0.0
2017-Dec-08 15:30N 48°31' W 122°36'0 0.0
2017-Dec-08 15:00N 48°31' W 122°36'0 0.2
2017-Dec-08 14:30N 48°31' W 122°36'1 1.9
2017-Dec-08 14:00N 48°31' W 122°35'1 2.1
2017-Dec-08 13:30N 48°31' W 122°36'0 0.0
2017-Dec-08 13:00N 48°31' W 122°36'0 0.0
2017-Dec-08 12:30N 48°31' W 122°36'3 5.4
2017-Dec-08 12:01N 48°33' W 122°34'4 8.9
2017-Dec-08 11:30N 48°37' W 122°34'0 0.3
2017-Dec-08 11:01N 48°37' W 122°34'0 0.4
2017-Dec-08 10:29N 48°37' W 122°34'2 4.6
2017-Dec-08 10:00N 48°35' W 122°34'4 8.9
2017-Dec-08 09:30N 48°31' W 122°36'0 0.1
2017-Dec-08 09:00N 48°31' W 122°36'0 0.0
2017-Dec-08 08:31N 48°31' W 122°36'0 0.0
2017-Dec-08 08:00N 48°31' W 122°36'0 0.0
2017-Dec-08 07:30N 48°31' W 122°36'0 0.0
2017-Dec-08 07:00N 48°31' W 122°36'0 0.0
2017-Dec-08 06:30N 48°31' W 122°36'0 0.0
2017-Dec-08 06:00N 48°31' W 122°36'0 0.0
2017-Dec-08 05:31N 48°31' W 122°36'0 0.0
2017-Dec-08 05:00N 48°31' W 122°36'0 0.0
2017-Dec-08 04:31N 48°31' W 122°36'0 0.0
2017-Dec-08 04:00N 48°31' W 122°36'0 0.0
2017-Dec-08 03:30N 48°31' W 122°36'0 0.0
2017-Dec-08 03:00N 48°31' W 122°36'0 0.0
2017-Dec-08 02:30N 48°31' W 122°36'0 1.0
2017-Dec-08 02:00N 48°31' W 122°36'510.5
2017-Dec-08 01:30N 48°35' W 122°32'5 9.7
2017-Dec-08 01:00N 48°31' W 122°35'1 2.3
2017-Dec-08 00:30N 48°31' W 122°36'0 0.0
2017-Dec-08 00:00N 48°31' W 122°36'2 4.5
2017-Dec-07 23:30N 48°32' W 122°34'3 6.2
2017-Dec-07 23:00N 48°35' W 122°33'510.5
2017-Dec-07 22:31N 48°31' W 122°36'0 0.0
2017-Dec-07 22:01N 48°31' W 122°36'0 0.0
2017-Dec-07 21:30N 48°31' W 122°36'0 0.0
2017-Dec-07 21:00N 48°31' W 122°36'2 3.2
2017-Dec-07 20:31N 48°31' W 122°34'0 0.2
2017-Dec-07 20:01N 48°31' W 122°34'1 3.0
2017-Dec-07 19:31N 48°31' W 122°36'0 0.0
2017-Dec-07 19:01N 48°31' W 122°36'0 0.0
2017-Dec-07 18:31N 48°31' W 122°36'0 0.0
2017-Dec-07 18:01N 48°31' W 122°36'0 0.0
2017-Dec-07 17:30N 48°31' W 122°36'0 0.0
2017-Dec-07 17:01N 48°31' W 122°36'1 2.9
2017-Dec-07 16:31N 48°31' W 122°34'0 0.1
2017-Dec-07 16:01N 48°31' W 122°34'1 2.9
2017-Dec-07 15:30N 48°31' W 122°36'0 0.0
2017-Dec-07 06:06N 48°31' W 122°36'0 0.2
2017-Dec-07 06:00N 48°31' W 122°36'0 0.0
2017-Dec-07 05:30N 48°31' W 122°36'0 0.0
2017-Dec-07 05:00N 48°31' W 122°36'0 0.0
2017-Dec-07 04:30N 48°31' W 122°36'1 1.4
2017-Dec-07 04:00N 48°31' W 122°35'1 1.4
2017-Dec-07 03:30N 48°31' W 122°36'0 0.0
2017-Dec-07 03:00N 48°31' W 122°36'0 0.0
2017-Dec-07 02:30N 48°31' W 122°36'0 0.0
2017-Dec-07 02:00N 48°31' W 122°36'0 0.0
2017-Dec-07 01:30N 48°31' W 122°36'0 0.0
2017-Dec-07 01:00N 48°31' W 122°36'1 1.8
2017-Dec-07 00:30N 48°31' W 122°35'5 9.9
2017-Dec-07 00:00N 48°35' W 122°32'1 2.9
2017-Dec-06 23:30N 48°35' W 122°34'5 9.6
2017-Dec-06 23:00N 48°31' W 122°36'0 0.0
2017-Dec-06 22:30N 48°31' W 122°36'0 0.0
2017-Dec-06 22:00N 48°31' W 122°36'0 0.0
2017-Dec-06 21:30N 48°31' W 122°36'0 0.0
2017-Dec-06 21:00N 48°31' W 122°36'  
2017-Dec-04 03:54N 48°31' W 122°36'0 0.0
2017-Dec-04 03:30N 48°31' W 122°36'0 0.0
2017-Dec-04 03:00N 48°31' W 122°36'0 0.0
2017-Dec-04 02:30N 48°31' W 122°36'0 0.0
2017-Dec-04 02:00N 48°31' W 122°36'0 0.0
2017-Dec-04 01:30N 48°31' W 122°36'0 0.0
2017-Dec-04 01:00N 48°31' W 122°36'0 0.0
2017-Dec-04 00:30N 48°31' W 122°36'0 0.0
2017-Dec-04 00:00N 48°31' W 122°36'0 0.0
2017-Dec-03 23:30N 48°31' W 122°36'0 0.0
2017-Dec-03 23:00N 48°31' W 122°36'0 0.0
2017-Dec-03 22:30N 48°31' W 122°36'0 0.0
2017-Dec-03 22:00N 48°31' W 122°36'0 0.0
2017-Dec-03 21:30N 48°31' W 122°36'3 5.6
2017-Dec-03 21:00N 48°33' W 122°34'3 5.5
2017-Dec-03 20:30N 48°36' W 122°33'510.9
2017-Dec-03 20:00N 48°31' W 122°36'0 0.1
2017-Dec-03 19:30N 48°31' W 122°36'0 0.0
2017-Dec-03 19:00N 48°31' W 122°36'0 0.0
2017-Dec-03 18:30N 48°31' W 122°36'0 0.0
2017-Dec-03 18:00N 48°31' W 122°36'0 0.0
2017-Dec-03 17:30N 48°31' W 122°36'0 0.0
2017-Dec-03 17:00N 48°31' W 122°36'0 0.1
2017-Dec-03 16:30N 48°31' W 122°36'1 1.8
2017-Dec-03 16:00N 48°31' W 122°35'1 1.8
2017-Dec-03 15:29N 48°31' W 122°36'0 0.0
2017-Dec-03 11:19N 48°31' W 122°36'0 0.6
2017-Dec-03 11:00N 48°31' W 122°36'0 0.4
2017-Dec-03 10:30N 48°31' W 122°36'0 0.0
2017-Dec-03 10:00N 48°31' W 122°36'0 0.0
2017-Dec-03 09:30N 48°31' W 122°36'0 0.0
2017-Dec-03 09:00N 48°31' W 122°36'0 0.0
2017-Dec-03 08:30N 48°31' W 122°36'0 0.0
2017-Dec-03 08:00N 48°31' W 122°36'0 0.0
2017-Dec-03 07:30N 48°31' W 122°36'0 0.0
2017-Dec-03 07:00N 48°31' W 122°36'0 0.0
2017-Dec-03 06:30N 48°31' W 122°36'0 0.0
2017-Dec-03 06:00N 48°31' W 122°36'0 0.0
2017-Dec-03 05:30N 48°31' W 122°36'0 0.0
2017-Dec-03 05:00N 48°31' W 122°36'0 0.0
2017-Dec-03 04:30N 48°31' W 122°36'0 0.0
2017-Dec-03 04:00N 48°31' W 122°36'0 0.0
2017-Dec-03 03:30N 48°31' W 122°36'0 0.0
2017-Dec-03 03:00N 48°31' W 122°36'1 1.1
2017-Dec-03 02:30N 48°31' W 122°36'1 1.1
2017-Dec-03 02:00N 48°31' W 122°36'0 0.0
2017-Dec-03 01:30N 48°31' W 122°36'0 0.0
2017-Dec-03 01:00N 48°31' W 122°36'0 0.0
2017-Dec-03 00:30N 48°31' W 122°36'0 0.0
2017-Dec-03 00:00N 48°31' W 122°36'1 2.0
2017-Dec-02 23:30N 48°31' W 122°35'1 2.0
2017-Dec-02 23:00N 48°31' W 122°36'0 0.0
2017-Dec-02 22:30N 48°31' W 122°36'0 0.0
2017-Dec-02 22:00N 48°31' W 122°36'0 0.0
2017-Dec-02 21:30N 48°31' W 122°36'0 0.0
2017-Dec-02 21:00N 48°31' W 122°36'1 1.7
2017-Dec-02 20:30N 48°31' W 122°35'0 0.5
2017-Dec-02 20:00N 48°31' W 122°35'0 0.1
2017-Dec-02 19:30N 48°31' W 122°35'0 0.1
2017-Dec-02 19:00N 48°31' W 122°35'0 0.3
2017-Dec-02 18:30N 48°31' W 122°35'1 2.1
2017-Dec-02 18:00N 48°31' W 122°36'0 0.0
2017-Dec-02 17:30N 48°31' W 122°36'0 0.0
2017-Dec-02 17:00N 48°31' W 122°36'0 0.0
2017-Dec-02 16:30N 48°31' W 122°36'0 0.1
2017-Dec-02 16:00N 48°31' W 122°37'0 0.1
2017-Dec-02 15:30N 48°31' W 122°36'  

Dump ship's entire track history